Time;durP1;ratioP1;P1;durP2;ratioP2;P2;SDS_P1;SDS_P2;PMS_P1;PMS_P2;Temp;Humidity;BMP_temperature;BMP_pressure;BME280_temperature;BME280_humidity;BME280_pressure;Samples;Min_cycle;Max_cycle;Signal;HPM_P1;HPM_P2
2022/07/02 00:02:13;;;;;;;1.00;1.00;;;23.60;68.30;;;;;;5069023;28;43972;-69
2022/07/02 00:04:44;;;;;;;1.00;1.00;;;23.50;68.60;;;;;;5068916;28;43972;-71
2022/07/02 00:07:14;;;;;;;0.90;0.90;;;23.30;68.80;;;;;;5068911;28;43916;-70
2022/07/02 00:09:42;;;;;;;0.80;0.80;;;23.20;69.10;;;;;;5069570;28;43400;-69
2022/07/02 00:12:12;;;;;;;0.90;0.90;;;23.10;69.50;;;;;;5068771;28;43878;-69
2022/07/02 00:14:40;;;;;;;0.93;0.87;;;23.00;69.90;;;;;;5068381;28;44107;-70
2022/07/02 00:17:09;;;;;;;0.90;0.90;;;22.80;70.10;;;;;;5069164;28;44036;-70
2022/07/02 00:19:38;;;;;;;0.90;0.90;;;22.80;70.50;;;;;;5069315;28;44037;-70
2022/07/02 00:22:06;;;;;;;0.83;0.83;;;22.70;70.70;;;;;;5069000;28;43982;-70
2022/07/02 00:24:39;;;;;;;0.90;0.90;;;22.60;70.80;;;;;;5050405;28;44362;-70
2022/07/02 00:27:09;;;;;;;1.07;0.90;;;22.60;70.90;;;;;;5050653;28;43847;-69
2022/07/02 00:29:44;;;;;;;0.80;0.80;;;22.60;71.00;;;;;;5068951;28;44087;-70
2022/07/02 00:32:12;;;;;;;0.90;0.90;;;22.50;71.00;;;;;;5068791;28;44639;-71
2022/07/02 00:34:40;;;;;;;0.90;0.90;;;22.50;71.20;;;;;;5068646;28;43944;-71
2022/07/02 00:37:09;;;;;;;0.90;0.90;;;22.50;71.20;;;;;;5069204;28;43953;-70
2022/07/02 00:39:37;;;;;;;0.90;0.90;;;22.50;71.20;;;;;;5069154;28;44051;-69
2022/07/02 00:42:06;;;;;;;0.90;0.90;;;22.50;71.30;;;;;;5050695;28;45787;-71
2022/07/02 00:44:34;;;;;;;0.77;0.77;;;22.50;71.30;;;;;;5068594;28;43443;-70
2022/07/02 00:47:05;;;;;;;0.80;0.80;;;22.50;71.50;;;;;;5068286;28;43840;-71
2022/07/02 00:49:33;;;;;;;0.80;0.80;;;22.50;72.30;;;;;;5068812;28;43894;-70
2022/07/02 00:52:01;;;;;;;1.00;1.00;;;22.50;72.40;;;;;;5061543;28;43950;-70
2022/07/02 00:54:29;;;;;;;0.80;0.80;;;22.60;72.00;;;;;;5042728;28;45881;-70
2022/07/02 00:56:57;;;;;;;0.83;0.83;;;22.70;71.50;;;;;;5056576;28;43345;-69
2022/07/02 00:59:26;;;;;;;0.93;0.93;;;22.90;71.10;;;;;;5062027;28;43750;-70
2022/07/02 01:01:54;;;;;;;1.00;1.00;;;23.00;70.50;;;;;;5061222;28;43998;-70
2022/07/02 01:04:23;;;;;;;0.80;0.80;;;23.20;70.00;;;;;;5067985;28;43418;-70
2022/07/02 01:06:51;;;;;;;0.90;0.90;;;23.30;69.60;;;;;;5061761;28;43980;-70
2022/07/02 01:12:05;;;;;;;1.00;1.00;;;23.50;68.80;;;;;;5067805;28;43964;-69
2022/07/02 01:14:34;;;;;;;0.90;0.90;;;23.60;68.50;;;;;;5067972;28;43917;-69
2022/07/02 01:17:01;;;;;;;0.80;0.80;;;23.50;68.70;;;;;;5067990;28;44017;-70
2022/07/02 01:19:31;;;;;;;1.10;1.10;;;23.40;68.90;;;;;;5067952;28;43969;-69
2022/07/02 01:22:18;;;;;;;0.90;0.90;;;23.30;69.20;;;;;;5067522;28;43917;-71
2022/07/02 01:24:46;;;;;;;0.73;0.73;;;23.10;69.40;;;;;;5049220;28;43922;-70
2022/07/02 01:27:14;;;;;;;1.00;1.00;;;23.00;70.50;;;;;;5067890;28;43981;-70
2022/07/02 01:29:42;;;;;;;0.87;0.87;;;22.90;70.10;;;;;;5067956;28;44015;-70
2022/07/02 01:32:11;;;;;;;0.80;0.80;;;22.80;70.50;;;;;;5067522;28;44853;-71
2022/07/02 01:34:39;;;;;;;0.87;0.87;;;22.70;70.70;;;;;;5067553;28;43382;-70
2022/07/02 01:37:09;;;;;;;0.83;0.83;;;22.60;70.90;;;;;;5067472;28;44003;-69
2022/07/02 01:39:38;;;;;;;1.00;1.00;;;22.60;71.60;;;;;;5067526;28;43831;-69
2022/07/02 01:42:07;;;;;;;0.90;0.90;;;22.50;71.10;;;;;;5067575;28;43725;-70
2022/07/02 01:44:35;;;;;;;0.90;0.90;;;22.50;71.20;;;;;;5067761;28;43378;-70
2022/07/02 01:47:04;;;;;;;0.80;0.80;;;22.50;71.40;;;;;;5049352;28;44245;-70
2022/07/02 01:49:32;;;;;;;0.80;0.80;;;22.50;71.40;;;;;;5067778;28;44005;-70
2022/07/02 01:52:00;;;;;;;0.77;0.77;;;22.50;71.50;;;;;;5067339;28;43933;-70
2022/07/02 01:54:28;;;;;;;0.80;0.80;;;22.50;72.20;;;;;;5067086;28;44065;-70
2022/07/02 01:56:58;;;;;;;1.07;1.07;;;22.50;72.60;;;;;;5060402;28;43909;-70
2022/07/02 01:59:26;;;;;;;1.00;1.00;;;22.50;72.50;;;;;;5061065;28;43920;-69
2022/07/02 02:01:54;;;;;;;0.70;0.70;;;22.60;72.10;;;;;;5060201;28;44024;-70
2022/07/02 02:04:22;;;;;;;0.90;0.90;;;22.70;71.70;;;;;;5060594;28;43861;-69
2022/07/02 02:06:50;;;;;;;0.87;0.87;;;22.80;71.10;;;;;;5059743;28;43389;-71
2022/07/02 02:09:19;;;;;;;0.93;0.93;;;23.00;70.80;;;;;;5061012;28;43984;-70
2022/07/02 02:11:47;;;;;;;0.90;0.90;;;23.10;70.20;;;;;;5060712;28;44005;-70
2022/07/02 02:14:17;;;;;;;0.73;0.73;;;23.20;69.70;;;;;;5066777;28;43905;-70
2022/07/02 02:16:45;;;;;;;0.70;0.70;;;23.40;69.40;;;;;;5066992;28;43987;-70
2022/07/02 02:19:13;;;;;;;1.23;1.00;;;23.50;69.00;;;;;;5067235;28;44122;-71
2022/07/02 02:21:41;;;;;;;0.93;0.93;;;23.60;68.70;;;;;;5066595;28;43971;-69
2022/07/02 02:24:09;;;;;;;1.10;1.10;;;23.60;68.40;;;;;;5066700;28;44022;-71
2022/07/02 02:26:37;;;;;;;0.67;0.67;;;23.60;68.50;;;;;;5048411;28;44054;-68
2022/07/02 02:29:05;;;;;;;0.70;0.70;;;23.50;68.60;;;;;;5066982;28;43485;-70
2022/07/02 02:31:34;;;;;;;0.97;0.97;;;23.40;68.90;;;;;;5066927;28;43921;-70
2022/07/02 02:34:02;;;;;;;0.80;0.80;;;23.20;69.80;;;;;;5066865;28;43869;-70
2022/07/02 02:36:30;;;;;;;0.90;0.90;;;23.10;69.50;;;;;;5066535;28;43890;-70
2022/07/02 02:38:58;;;;;;;0.70;0.70;;;22.90;69.80;;;;;;5066909;28;44002;-70
2022/07/02 02:41:26;;;;;;;0.90;0.90;;;22.80;70.20;;;;;;5066101;28;44968;-70
2022/07/02 02:43:54;;;;;;;0.87;0.87;;;22.70;70.50;;;;;;5066708;28;43733;-70
2022/07/02 02:46:22;;;;;;;0.93;0.93;;;22.60;70.70;;;;;;5066767;28;43972;-69
2022/07/02 02:48:52;;;;;;;0.90;0.90;;;22.60;70.90;;;;;;5066847;28;44064;-70
2022/07/02 02:51:19;;;;;;;0.90;0.90;;;22.50;70.90;;;;;;5066408;28;43973;-70
2022/07/02 02:53:49;;;;;;;1.10;1.10;;;22.50;71.20;;;;;;5066509;28;43867;-70
2022/07/02 02:56:17;;;;;;;0.80;0.80;;;22.50;71.30;;;;;;5066229;28;43423;-70
2022/07/02 02:58:45;;;;;;;0.77;0.77;;;22.50;71.50;;;;;;5066693;28;43438;-70
2022/07/02 03:01:13;;;;;;;0.90;0.90;;;22.40;71.40;;;;;;5065978;28;43798;-70
2022/07/02 03:03:41;;;;;;;1.00;1.00;;;22.40;72.20;;;;;;5066135;28;43722;-70
2022/07/02 03:06:11;;;;;;;1.00;1.00;;;22.40;71.60;;;;;;5066206;28;43814;-70
2022/07/02 03:08:38;;;;;;;0.90;0.90;;;22.40;71.60;;;;;;5066561;28;44077;-69
2022/07/02 03:11:06;;;;;;;0.83;0.83;;;22.40;71.60;;;;;;5048021;28;46089;-70
2022/07/02 03:13:34;;;;;;;1.00;1.00;;;22.40;72.40;;;;;;5066264;28;44056;-69
2022/07/02 03:16:02;;;;;;;0.90;0.90;;;22.40;72.70;;;;;;5066441;28;43900;-70
2022/07/02 03:18:30;;;;;;;0.80;0.80;;;22.50;72.50;;;;;;5067430;28;44044;-70
2022/07/02 03:20:58;;;;;;;0.87;0.87;;;22.60;72.10;;;;;;5069571;28;44043;-70
2022/07/02 03:23:27;;;;;;;0.90;0.90;;;22.70;71.50;;;;;;5069839;28;43979;-70
2022/07/02 03:25:56;;;;;;;2.70;1.00;;;22.90;71.10;;;;;;5069350;28;43960;-70
2022/07/02 03:28:24;;;;;;;1.00;1.00;;;23.00;70.50;;;;;;5069322;28;43458;-71
2022/07/02 03:30:52;;;;;;;0.90;0.90;;;23.20;70.00;;;;;;5069827;28;43741;-70
2022/07/02 03:33:20;;;;;;;0.93;0.93;;;23.30;69.50;;;;;;5069279;28;44494;-69
2022/07/02 03:35:48;;;;;;;1.00;1.00;;;23.40;69.20;;;;;;5069856;28;43346;-70
2022/07/02 03:38:16;;;;;;;0.83;0.83;;;23.50;68.80;;;;;;5069872;28;43813;-71
2022/07/02 03:40:45;;;;;;;1.00;1.00;;;23.60;68.50;;;;;;5069350;28;44012;-69
2022/07/02 03:43:13;;;;;;;1.20;1.20;;;23.50;68.50;;;;;;5069164;28;43874;-70
2022/07/02 03:45:41;;;;;;;0.90;0.90;;;23.40;68.80;;;;;;5069467;28;43893;-70
2022/07/02 03:48:09;;;;;;;1.07;1.07;;;23.30;69.10;;;;;;5069819;28;43838;-69
2022/07/02 03:50:38;;;;;;;1.00;1.00;;;23.10;69.30;;;;;;5069329;28;44113;-69
2022/07/02 03:53:06;;;;;;;0.80;0.80;;;23.00;69.70;;;;;;5069229;28;43979;-69
2022/07/02 03:55:34;;;;;;;1.00;1.00;;;22.90;70.10;;;;;;5069501;28;43758;-70
2022/07/02 03:58:03;;;;;;;0.90;0.90;;;22.80;70.50;;;;;;5069702;28;44027;-70
2022/07/02 04:00:31;;;;;;;1.00;1.00;;;22.70;70.60;;;;;;5068978;28;43922;-69
2022/07/02 04:02:59;;;;;;;1.00;1.00;;;22.60;70.90;;;;;;5050228;28;44319;-71
2022/07/02 04:05:27;;;;;;;1.37;1.00;;;22.60;71.10;;;;;;5069212;28;43464;-69
2022/07/02 04:07:55;;;;;;;1.00;1.00;;;22.60;71.30;;;;;;5069422;28;44036;-69
2022/07/02 04:10:23;;;;;;;0.90;0.90;;;22.50;71.30;;;;;;5068989;28;43917;-70
2022/07/02 04:12:51;;;;;;;1.10;1.10;;;22.50;71.40;;;;;;5068980;28;44003;-69
2022/07/02 04:15:21;;;;;;;0.90;0.90;;;22.40;71.40;;;;;;5069034;28;43406;-71
2022/07/02 04:17:49;;;;;;;0.93;0.93;;;22.40;71.60;;;;;;5068987;28;43371;-70
2022/07/02 04:20:17;;;;;;;0.97;0.97;;;22.40;71.60;;;;;;5068701;28;43984;-70
2022/07/02 04:22:45;;;;;;;1.10;1.10;;;22.40;72.00;;;;;;5068767;28;43705;-69
2022/07/02 04:25:13;;;;;;;1.10;1.10;;;22.40;72.60;;;;;;5068996;28;43404;-71
2022/07/02 04:27:40;;;;;;;1.00;1.00;;;22.40;72.50;;;;;;5069371;28;44107;-70
2022/07/02 04:30:10;;;;;;;1.00;1.00;;;22.50;72.20;;;;;;5049314;28;45044;-69
2022/07/02 04:32:39;;;;;;;1.00;1.00;;;22.60;71.80;;;;;;5068629;28;43863;-70
2022/07/02 04:35:08;;;;;;;1.00;1.00;;;22.70;71.40;;;;;;5050690;28;43954;-70
2022/07/02 04:37:36;;;;;;;1.07;1.07;;;22.90;70.90;;;;;;5050754;28;43969;-70
2022/07/02 04:40:04;;;;;;;1.10;1.07;;;23.00;70.40;;;;;;5068025;28;45000;-69
2022/07/02 04:42:32;;;;;;;0.97;0.97;;;23.20;70.00;;;;;;5068525;28;43960;-71
2022/07/02 04:45:00;;;;;;;1.00;1.00;;;23.30;69.50;;;;;;5068592;28;44099;-71
2022/07/02 04:47:28;;;;;;;1.20;1.20;;;23.40;69.10;;;;;;5068843;28;43868;-71
2022/07/02 04:49:58;;;;;;;0.93;0.93;;;23.50;68.80;;;;;;5049788;28;46388;-70
2022/07/02 04:52:26;;;;;;;1.00;1.00;;;23.60;68.50;;;;;;5068132;28;43864;-69
2022/07/02 04:54:53;;;;;;;0.90;0.90;;;23.60;68.20;;;;;;5068305;28;44056;-69
2022/07/02 04:57:21;;;;;;;0.97;0.97;;;23.60;68.30;;;;;;5068822;28;43942;-69
2022/07/02 04:59:49;;;;;;;1.23;1.23;;;23.40;69.40;;;;;;5068349;28;43737;-70
2022/07/02 05:02:18;;;;;;;1.00;1.00;;;23.30;69.00;;;;;;5067961;28;44076;-70
2022/07/02 05:04:47;;;;;;;1.00;1.00;;;23.20;69.30;;;;;;5068369;28;44000;-71
2022/07/02 05:07:16;;;;;;;1.10;1.10;;;23.00;69.70;;;;;;5068315;28;43897;-70
2022/07/02 05:09:49;;;;;;;1.10;1.10;;;22.90;70.10;;;;;;5067863;28;44072;-70
2022/07/02 05:12:17;;;;;;;1.00;1.00;;;22.70;70.40;;;;;;5068108;28;43885;-70
2022/07/02 05:14:45;;;;;;;0.90;0.90;;;22.70;70.80;;;;;;5068168;28;43910;-69
2022/07/02 05:17:13;;;;;;;1.00;1.00;;;22.60;70.90;;;;;;5068491;28;44031;-70
2022/07/02 05:19:41;;;;;;;0.90;0.90;;;22.60;71.10;;;;;;5067814;28;44051;-70
2022/07/02 05:22:09;;;;;;;0.97;0.97;;;22.50;71.20;;;;;;5067631;28;43806;-70
2022/07/02 05:24:39;;;;;;;0.90;0.90;;;22.50;71.40;;;;;;5068162;28;43907;-69
2022/07/02 05:27:07;;;;;;;1.00;1.00;;;22.40;71.40;;;;;;5068382;28;43983;-70
2022/07/02 05:29:35;;;;;;;1.13;1.13;;;22.40;71.40;;;;;;5067739;28;43964;-70
2022/07/02 05:32:03;;;;;;;1.07;1.03;;;22.40;71.50;;;;;;5068008;28;44049;-70
2022/07/02 05:34:31;;;;;;;0.80;0.80;;;22.40;71.60;;;;;;5067666;28;44003;-70
2022/07/02 05:36:59;;;;;;;1.10;1.10;;;22.40;71.60;;;;;;5068190;28;43957;-70
2022/07/02 05:39:27;;;;;;;1.00;1.00;;;22.30;71.50;;;;;;5067478;28;44640;-69
2022/07/02 05:41:57;;;;;;;1.10;1.10;;;22.30;71.50;;;;;;5067370;28;43987;-70
2022/07/02 05:44:25;;;;;;;1.10;1.10;;;22.30;72.30;;;;;;5067659;28;43921;-70
2022/07/02 05:46:53;;;;;;;1.10;1.10;;;22.30;72.30;;;;;;5067942;28;43538;-71
2022/07/02 05:49:21;;;;;;;1.10;1.10;;;22.40;72.00;;;;;;5067314;28;44046;-70
2022/07/02 05:51:49;;;;;;;0.93;0.93;;;22.50;71.50;;;;;;5067182;28;43788;-70
2022/07/02 05:54:17;;;;;;;1.17;1.17;;;22.70;71.00;;;;;;5067528;28;43398;-69
2022/07/02 05:56:45;;;;;;;0.87;0.87;;;22.90;70.30;;;;;;5049451;28;43980;-70
2022/07/02 05:59:14;;;;;;;1.10;1.10;;;23.00;69.80;;;;;;5067152;28;43937;-71
2022/07/02 06:01:42;;;;;;;1.03;1.03;;;23.20;69.40;;;;;;5066736;28;43456;-70
2022/07/02 06:04:10;;;;;;;1.10;1.10;;;23.30;69.00;;;;;;5067304;28;43854;-69
2022/07/02 06:09:24;;;;;;;1.97;1.87;;;23.40;68.30;;;;;;5067090;28;43956;-70
2022/07/02 06:11:52;;;;;;;2.00;1.80;;;23.40;62.90;;;;;;5066846;28;43872;-70
2022/07/02 06:14:21;;;;;;;2.60;2.40;;;23.30;61.40;;;;;;5067257;28;43962;-69
2022/07/02 06:16:49;;;;;;;2.03;1.93;;;23.20;62.90;;;;;;5067521;28;43897;-69
2022/07/02 06:19:17;;;;;;;2.20;2.00;;;23.10;64.50;;;;;;5066922;28;43940;-69
2022/07/02 06:21:45;;;;;;;2.00;2.00;;;22.90;64.10;;;;;;5067025;28;44064;-70
2022/07/02 06:24:13;;;;;;;2.27;2.17;;;22.80;63.70;;;;;;5066811;28;43798;-70
2022/07/02 06:26:41;;;;;;;2.43;2.30;;;22.70;63.70;;;;;;5049048;28;44198;-69
2022/07/02 06:29:09;;;;;;;3.67;2.07;;;22.50;63.10;;;;;;5066722;28;44068;-69
2022/07/02 06:31:38;;;;;;;2.07;1.97;;;22.50;63.30;;;;;;5067073;28;44007;-69
2022/07/02 06:34:07;;;;;;;2.20;2.10;;;22.40;63.00;;;;;;5067024;28;44012;-69
2022/07/02 06:36:35;;;;;;;2.13;2.13;;;22.30;62.40;;;;;;5067375;28;43437;-70
2022/07/02 06:39:03;;;;;;;2.20;2.00;;;22.30;62.30;;;;;;5066793;28;44926;-70
2022/07/02 06:44:16;;;;;;;2.37;2.10;;;22.20;61.60;;;;;;5066969;28;43372;-70
2022/07/02 06:46:46;;;;;;;3.40;2.10;;;22.20;61.90;;;;;;5048832;28;43979;-70
2022/07/02 06:49:14;;;;;;;3.37;2.00;;;22.20;62.00;;;;;;5047983;28;47177;-69
2022/07/02 06:51:42;;;;;;;2.77;1.97;;;22.10;61.10;;;;;;5066561;28;43387;-70
2022/07/02 06:54:10;;;;;;;4.83;1.97;;;22.10;61.10;;;;;;5068796;28;43340;-70
2022/07/02 06:56:38;;;;;;;2.07;1.87;;;22.10;60.40;;;;;;5070618;28;43431;-69
2022/07/02 06:59:06;;;;;;;2.77;1.77;;;22.10;58.60;;;;;;5069935;28;45115;-70
2022/07/02 07:01:34;;;;;;;1.47;1.37;;;22.10;57.60;;;;;;5070101;28;43856;-70
2022/07/02 07:04:10;;;;;;;2.20;2.10;;;22.20;57.30;;;;;;5070310;28;43953;-69
2022/07/02 07:06:38;;;;;;;2.13;1.47;;;22.20;55.90;;;;;;5070293;28;43845;-70
2022/07/02 07:09:07;;;;;;;2.00;1.70;;;22.20;55.40;;;;;;5069906;28;44757;-70
2022/07/02 07:11:35;;;;;;;1.40;1.30;;;22.30;54.90;;;;;;5070327;28;43421;-70
2022/07/02 07:14:03;;;;;;;1.70;1.40;;;22.40;54.70;;;;;;5070385;28;43912;-69
2022/07/02 07:16:31;;;;;;;2.17;1.33;;;22.50;54.20;;;;;;5070476;28;43929;-70
2022/07/02 07:19:00;;;;;;;1.70;1.40;;;22.60;53.80;;;;;;5069712;28;44807;-70
2022/07/02 07:21:29;;;;;;;1.60;1.30;;;22.60;53.90;;;;;;5069787;28;44005;-70
2022/07/02 07:23:57;;;;;;;2.83;1.50;;;22.60;54.50;;;;;;5069574;28;43391;-70
2022/07/02 07:26:25;;;;;;;1.40;1.23;;;22.70;54.60;;;;;;5070166;28;43918;-70
2022/07/02 07:28:53;;;;;;;2.83;1.50;;;22.60;54.30;;;;;;5069387;28;43940;-70
2022/07/02 07:31:21;;;;;;;1.00;1.00;;;22.60;55.30;;;;;;5051203;28;45051;-70
2022/07/02 07:33:49;;;;;;;1.40;1.30;;;22.50;57.10;;;;;;5069862;28;43896;-69
2022/07/02 07:36:17;;;;;;;1.00;1.00;;;22.40;57.70;;;;;;5069832;28;44028;-71
2022/07/02 07:38:47;;;;;;;1.13;1.10;;;22.20;58.00;;;;;;5069159;28;44197;-69
2022/07/02 07:41:15;;;;;;;1.00;1.00;;;22.20;58.20;;;;;;5069440;28;44031;-70
2022/07/02 07:43:43;;;;;;;1.10;1.00;;;22.10;58.30;;;;;;5069661;28;43951;-70
2022/07/02 07:46:11;;;;;;;1.10;1.00;;;22.10;58.30;;;;;;5069798;28;43917;-70
2022/07/02 07:48:39;;;;;;;2.10;0.90;;;22.00;58.40;;;;;;5068898;28;43854;-70
2022/07/02 07:51:12;;;;;;;2.03;1.20;;;21.90;58.40;;;;;;5069418;28;43904;-70
2022/07/02 07:53:40;;;;;;;4.60;1.50;;;21.90;58.60;;;;;;5044954;28;43492;-69
2022/07/02 07:56:10;;;;;;;1.50;1.40;;;21.90;58.70;;;;;;5063424;28;43897;-70
2022/07/02 07:58:38;;;;;;;8.67;1.30;;;21.90;58.80;;;;;;5062879;28;44787;-69
2022/07/02 08:01:06;;;;;;;40.73;4.10;;;21.90;59.00;;;;;;5069102;28;44014;-70
2022/07/02 08:03:34;;;;;;;51.10;5.33;;;21.90;59.20;;;;;;5069130;28;43973;-70
2022/07/02 08:06:02;;;;;;;51.83;4.90;;;21.90;59.80;;;;;;5068255;28;43889;-70
2022/07/02 08:08:30;;;;;;;42.30;4.87;;;21.80;59.10;;;;;;5068772;28;43918;-71
2022/07/02 08:10:58;;;;;;;39.27;4.70;;;21.80;59.00;;;;;;5068885;28;43427;-70
2022/07/02 08:13:27;;;;;;;33.73;4.17;;;21.80;59.10;;;;;;5051158;28;43977;-70
2022/07/02 08:15:55;;;;;;;12.70;2.63;;;21.80;59.20;;;;;;5069530;28;43454;-70
2022/07/02 08:18:23;;;;;;;14.07;2.20;;;21.80;59.10;;;;;;5068796;28;44556;-69
2022/07/02 08:20:51;;;;;;;12.87;1.80;;;21.80;58.60;;;;;;5068752;28;43968;-71
2022/07/02 08:23:19;;;;;;;5.13;1.60;;;21.80;58.40;;;;;;5068806;28;44033;-69
2022/07/02 08:25:47;;;;;;;7.63;1.73;;;21.90;57.90;;;;;;5069374;28;43925;-71
2022/07/02 08:28:15;;;;;;;6.40;1.40;;;22.00;58.30;;;;;;5068512;28;43948;-69
2022/07/02 08:30:44;;;;;;;1.83;1.13;;;22.10;57.50;;;;;;5068513;28;43937;-70
2022/07/02 08:33:15;;;;;;;6.73;1.27;;;22.10;56.90;;;;;;5069151;28;44000;-70
2022/07/02 08:35:43;;;;;;;2.33;1.30;;;22.30;56.00;;;;;;5069145;28;43946;-70
2022/07/02 08:38:11;;;;;;;3.43;1.03;;;22.40;55.50;;;;;;5068468;28;44651;-70
2022/07/02 08:40:41;;;;;;;3.43;1.30;;;22.50;56.50;;;;;;5068414;28;43941;-70
2022/07/02 08:43:09;;;;;;;1.60;0.90;;;22.50;56.60;;;;;;5068703;28;44305;-71
2022/07/02 08:45:37;;;;;;;6.23;1.20;;;22.60;55.30;;;;;;5069178;28;44044;-70
2022/07/02 08:48:07;;;;;;;4.10;1.17;;;22.60;54.20;;;;;;5068341;28;43885;-70
2022/07/02 08:50:35;;;;;;;0.90;0.90;;;22.60;55.30;;;;;;5068086;28;44072;-70
2022/07/02 08:53:04;;;;;;;1.10;1.10;;;22.50;56.40;;;;;;5068605;28;43900;-70
2022/07/02 08:55:33;;;;;;;2.40;1.20;;;22.40;57.40;;;;;;5068835;28;43983;-70
2022/07/02 08:58:01;;;;;;;0.80;0.80;;;22.20;57.90;;;;;;5068214;28;45114;-71
2022/07/02 09:00:29;;;;;;;1.13;1.00;;;22.20;58.20;;;;;;5036672;28;43414;-70
2022/07/02 09:02:58;;;;;;;1.10;0.83;;;22.10;59.00;;;;;;5068090;28;43921;-70
2022/07/02 09:05:28;;;;;;;0.80;0.80;;;22.10;58.60;;;;;;5068685;28;44054;-70
2022/07/02 09:07:57;;;;;;;1.20;1.20;;;22.00;58.80;;;;;;5068221;28;44012;-69
2022/07/02 09:10:25;;;;;;;1.10;1.10;;;22.00;58.80;;;;;;5067916;28;44000;-70
2022/07/02 09:12:53;;;;;;;1.20;1.10;;;21.90;58.90;;;;;;5068358;28;43990;-71
2022/07/02 09:15:21;;;;;;;1.43;1.00;;;21.90;59.00;;;;;;5068319;28;43352;-70
2022/07/02 09:17:49;;;;;;;1.00;1.00;;;21.90;59.10;;;;;;5067462;28;44013;-70
2022/07/02 09:20:17;;;;;;;4.23;1.00;;;21.90;59.20;;;;;;5067846;28;43982;-70
2022/07/02 09:22:49;;;;;;;1.00;1.00;;;21.80;59.10;;;;;;5068115;28;43449;-70
2022/07/02 09:25:18;;;;;;;1.73;0.90;;;21.80;59.20;;;;;;5068464;28;43986;-69
2022/07/02 09:27:46;;;;;;;0.70;0.70;;;21.80;59.30;;;;;;5067572;28;43913;-69
2022/07/02 09:30:16;;;;;;;1.00;1.00;;;21.80;59.40;;;;;;5067880;28;43439;-70
2022/07/02 09:32:45;;;;;;;1.00;0.90;;;21.80;59.60;;;;;;5068017;28;43929;-70
2022/07/02 09:35:19;;;;;;;3.10;0.90;;;21.80;59.40;;;;;;5068574;28;43993;-70
2022/07/02 09:37:50;;;;;;;2.50;0.90;;;21.80;59.20;;;;;;5049448;28;45979;-69
2022/07/02 09:40:20;;;;;;;0.80;0.80;;;21.80;59.20;;;;;;5067468;28;44043;-69
2022/07/02 09:42:48;;;;;;;0.70;0.70;;;21.80;59.20;;;;;;5067715;28;44034;-70
2022/07/02 09:45:16;;;;;;;0.90;0.90;;;21.80;59.30;;;;;;5068198;28;43321;-69
2022/07/02 09:47:48;;;;;;;1.90;0.83;;;21.90;59.50;;;;;;5067890;28;43766;-70
2022/07/02 09:50:17;;;;;;;0.80;0.80;;;21.90;59.60;;;;;;5067732;28;43934;-70
2022/07/02 09:52:50;;;;;;;0.93;0.93;;;21.80;59.60;;;;;;5067692;28;43890;-69
2022/07/02 09:55:20;;;;;;;0.70;0.70;;;21.90;60.60;;;;;;5061051;28;43874;-69
2022/07/02 09:57:52;;;;;;;0.70;0.70;;;22.00;60.80;;;;;;5067450;28;43755;-70
2022/07/02 10:00:20;;;;;;;3.17;1.00;;;22.10;60.40;;;;;;5061530;28;43997;-69
2022/07/02 10:02:51;;;;;;;4.93;0.90;;;22.30;60.00;;;;;;5067358;28;43481;-70
2022/07/02 10:05:23;;;;;;;1.10;0.90;;;22.50;60.20;;;;;;5067777;28;44003;-70
2022/07/02 10:07:53;;;;;;;0.90;0.90;;;22.80;59.30;;;;;;5067376;28;44967;-70
2022/07/02 10:10:23;;;;;;;2.37;0.80;;;22.90;59.40;;;;;;5067211;28;43385;-70
2022/07/02 10:12:52;;;;;;;0.60;0.60;;;23.10;58.20;;;;;;5067106;28;43960;-70
2022/07/02 10:15:21;;;;;;;0.83;0.83;;;23.20;57.80;;;;;;5067933;28;43762;-70
2022/07/02 10:17:50;;;;;;;2.97;0.90;;;23.30;57.50;;;;;;5066990;28;44037;-69
2022/07/02 10:20:18;;;;;;;0.83;0.83;;;23.40;57.30;;;;;;5066974;28;43970;-69
2022/07/02 10:22:46;;;;;;;3.47;1.00;;;23.50;57.20;;;;;;5048611;28;43973;-71
2022/07/02 10:25:15;;;;;;;3.30;0.80;;;23.50;57.20;;;;;;5067554;28;43949;-70
2022/07/02 10:27:43;;;;;;;2.97;0.93;;;23.60;57.00;;;;;;5066017;28;44007;-69
2022/07/02 10:30:12;;;;;;;1.33;0.73;;;23.60;56.70;;;;;;5067009;28;43940;-70
2022/07/02 10:32:42;;;;;;;2.97;1.57;;;23.70;56.80;;;;;;5066773;28;44301;-70
2022/07/02 10:35:12;;;;;;;3.00;0.70;;;23.70;56.70;;;;;;5067433;28;44024;-70
2022/07/02 10:37:40;;;;;;;1.30;0.97;;;23.80;57.00;;;;;;5066537;28;43973;-70
2022/07/02 10:40:09;;;;;;;4.00;0.90;;;23.80;56.80;;;;;;5066625;28;43966;-70
2022/07/02 10:42:40;;;;;;;2.47;1.00;;;23.80;56.70;;;;;;5066955;28;43787;-71
2022/07/02 10:45:15;;;;;;;0.77;0.77;;;23.80;56.70;;;;;;5067296;28;44008;-70
2022/07/02 10:47:57;;;;;;;1.03;0.93;;;23.80;56.80;;;;;;5066738;28;44033;-70
2022/07/02 10:50:28;;;;;;;0.73;0.73;;;23.70;57.30;;;;;;5060210;28;43374;-71
2022/07/02 10:52:57;;;;;;;0.83;0.83;;;23.50;57.50;;;;;;5066735;28;43995;-70
2022/07/02 10:55:28;;;;;;;0.70;0.70;;;23.30;58.00;;;;;;5067340;28;44089;-69
2022/07/02 10:57:59;;;;;;;0.90;0.90;;;23.10;57.90;;;;;;5066696;28;44015;-70
2022/07/02 11:00:28;;;;;;;0.60;0.60;;;22.90;58.40;;;;;;5066420;28;43896;-70
2022/07/02 11:02:57;;;;;;;0.87;0.87;;;22.70;58.80;;;;;;5066340;28;43972;-70
2022/07/02 11:05:25;;;;;;;0.80;0.80;;;22.60;59.10;;;;;;5048644;28;43989;-70
2022/07/02 11:07:54;;;;;;;0.70;0.70;;;22.50;59.20;;;;;;5066743;28;43824;-70
2022/07/02 11:10:28;;;;;;;0.60;0.60;;;22.40;59.40;;;;;;5066486;28;43830;-70
2022/07/02 11:13:01;;;;;;;0.80;0.80;;;22.30;59.60;;;;;;5066455;28;43378;-70
2022/07/02 11:15:34;;;;;;;0.80;0.80;;;22.30;59.90;;;;;;5066882;28;43949;-70
2022/07/02 11:18:03;;;;;;;0.77;0.77;;;22.20;61.10;;;;;;5066359;28;43740;-69
2022/07/02 11:20:31;;;;;;;1.37;0.63;;;22.20;62.00;;;;;;5066243;28;43963;-69
2022/07/02 11:22:59;;;;;;;1.17;0.70;;;22.20;61.90;;;;;;5066219;28;44011;-69
2022/07/02 11:25:29;;;;;;;0.80;0.80;;;22.30;61.70;;;;;;5066800;28;43952;-70
2022/07/02 11:27:59;;;;;;;1.33;1.00;;;22.50;62.10;;;;;;5065866;28;43917;-69
2022/07/02 11:30:28;;;;;;;0.70;0.70;;;22.60;60.60;;;;;;5065977;28;43396;-70
2022/07/02 11:32:55;;;;;;;1.53;0.73;;;22.80;60.30;;;;;;5066083;28;43961;-70
2022/07/02 11:35:24;;;;;;;0.70;0.70;;;22.90;59.90;;;;;;5066705;28;43964;-69
2022/07/02 11:37:56;;;;;;;1.83;0.83;;;23.00;59.60;;;;;;5065979;28;43940;-71
2022/07/02 11:40:24;;;;;;;1.20;0.70;;;23.20;59.30;;;;;;5068143;28;43902;-70
2022/07/02 11:42:52;;;;;;;4.40;0.70;;;23.30;59.20;;;;;;5069551;28;43872;-70
2022/07/02 11:45:22;;;;;;;0.80;0.80;;;23.40;59.10;;;;;;5069748;28;43412;-71
2022/07/02 11:47:50;;;;;;;2.00;0.70;;;23.40;58.80;;;;;;5069411;28;43986;-71
2022/07/02 11:50:27;;;;;;;1.80;0.70;;;23.50;58.70;;;;;;5069600;28;44045;-70
2022/07/02 11:52:55;;;;;;;0.83;0.80;;;23.50;58.80;;;;;;5069354;28;43996;-69
2022/07/02 11:55:23;;;;;;;0.87;0.80;;;23.40;59.10;;;;;;5069780;28;43951;-69
2022/07/02 11:57:51;;;;;;;0.80;0.80;;;23.30;59.70;;;;;;5069289;28;44144;-70
2022/07/02 12:00:20;;;;;;;2.40;0.70;;;23.10;59.80;;;;;;5068982;28;44038;-69
2022/07/02 12:02:49;;;;;;;0.93;0.93;;;22.90;59.70;;;;;;5069145;28;44231;-69
2022/07/02 12:05:17;;;;;;;0.60;0.60;;;22.70;60.10;;;;;;5069673;28;43998;-69
2022/07/02 12:07:45;;;;;;;0.97;0.90;;;22.60;60.50;;;;;;5069034;28;43986;-70
2022/07/02 12:10:13;;;;;;;0.80;0.80;;;22.40;60.80;;;;;;5069139;28;43432;-69
2022/07/02 12:12:41;;;;;;;0.80;0.60;;;22.40;61.00;;;;;;5068928;28;43403;-70
2022/07/02 12:15:10;;;;;;;0.67;0.63;;;22.30;61.30;;;;;;5051236;28;44236;-70
2022/07/02 12:17:48;;;;;;;1.13;0.90;;;22.20;61.60;;;;;;5069163;28;43908;-70
2022/07/02 12:20:16;;;;;;;0.90;0.90;;;22.20;61.80;;;;;;5069038;28;44174;-70
2022/07/02 12:22:52;;;;;;;1.70;0.80;;;22.20;62.00;;;;;;5068816;28;43416;-69
2022/07/02 12:25:20;;;;;;;1.00;1.00;;;22.20;62.70;;;;;;5069331;28;44071;-70
2022/07/02 12:27:53;;;;;;;0.73;0.73;;;22.20;63.90;;;;;;5068654;28;43908;-70
2022/07/02 12:30:21;;;;;;;2.00;0.60;;;22.10;63.70;;;;;;5050458;28;44915;-69
2022/07/02 12:32:53;;;;;;;0.70;0.70;;;22.20;63.60;;;;;;5068908;28;43958;-70
2022/07/02 12:35:21;;;;;;;0.60;0.60;;;22.40;63.30;;;;;;5068983;28;43425;-69
2022/07/02 12:37:52;;;;;;;0.70;0.70;;;22.50;62.80;;;;;;5068738;28;43921;-68
2022/07/02 12:40:21;;;;;;;0.70;0.70;;;22.60;62.20;;;;;;5068538;28;44055;-69
2022/07/02 12:42:49;;;;;;;0.50;0.50;;;22.80;61.70;;;;;;5068914;28;43989;-70
2022/07/02 12:45:22;;;;;;;0.80;0.80;;;22.90;61.60;;;;;;5068855;28;43915;-70
2022/07/02 12:47:58;;;;;;;0.60;0.60;;;23.00;61.10;;;;;;5068468;28;44975;-69
2022/07/02 12:50:26;;;;;;;0.80;0.80;;;23.10;60.80;;;;;;5061757;28;43972;-69
2022/07/02 12:52:55;;;;;;;0.70;0.70;;;23.20;60.50;;;;;;5062081;28;43928;-68
2022/07/02 12:55:24;;;;;;;0.63;0.63;;;23.30;60.30;;;;;;5062510;28;43921;-69
2022/07/02 12:57:52;;;;;;;0.97;0.53;;;23.40;60.30;;;;;;5068246;28;44083;-71
2022/07/02 13:00:21;;;;;;;1.47;0.90;;;23.30;60.40;;;;;;5068248;28;44124;-69
2022/07/02 13:02:59;;;;;;;0.70;0.70;;;23.20;61.10;;;;;;5068003;28;43467;-70